Time;durP1;ratioP1;P1;durP2;ratioP2;P2;SDS_P1;SDS_P2;PMS_P1;PMS_P2;Temp;Humidity;BMP_temperature;BMP_pressure;BME280_temperature;BME280_humidity;BME280_pressure;Samples;Min_cycle;Max_cycle;Signal;HPM_P1;HPM_P2
2022/07/25 00:00:08;;;;;;;0.00;0.00;;;;;;;;;;5062133;28;20235;-65
2022/07/25 00:02:35;;;;;;;0.00;0.00;;;;;;;;;;5063179;28;20319;-64
2022/07/25 00:05:01;;;;;;;0.00;0.00;;;;;;;;;;5064300;28;20219;-64
2022/07/25 00:07:29;;;;;;;0.00;0.00;;;;;;;;;;5052409;28;20266;-65
2022/07/25 00:09:55;;;;;;;0.00;0.00;;;;;;;;;;5064261;28;20204;-65
2022/07/25 00:12:22;;;;;;;0.10;0.10;;;;;;;;;;5052319;28;20248;-64
2022/07/25 00:14:48;;;;;;;0.00;0.00;;;;;;;;;;5064082;28;20204;-64
2022/07/25 00:17:15;;;;;;;0.00;0.00;;;;;;;;;;5052287;28;20439;-64
2022/07/25 00:19:41;;;;;;;0.00;0.00;;;;;;;;;;5063705;28;20254;-64
2022/07/25 00:22:07;;;;;;;0.08;0.08;;;;;;;;;;5052378;28;20327;-64
2022/07/25 00:24:35;;;;;;;0.00;0.00;;;;;;;;;;5063989;28;20211;-63
2022/07/25 00:27:02;;;;;;;0.00;0.00;;;;;;;;;;5052022;28;20236;-65
2022/07/25 00:29:28;;;;;;;0.00;0.00;;;;;;;;;;5063853;28;20376;-65
2022/07/25 00:31:55;;;;;;;0.00;0.00;;;;;;;;;;5052081;28;20439;-66
2022/07/25 00:34:21;;;;;;;0.00;0.00;;;;;;;;;;5063468;28;20220;-64
2022/07/25 00:36:47;;;;;;;0.00;0.00;;;;;;;;;;5051979;28;20244;-64
2022/07/25 00:39:14;;;;;;;0.00;0.00;;;;;;;;;;5063052;28;20479;-64
2022/07/25 00:41:43;;;;;;;0.10;0.10;;;;;;;;;;5051958;28;20232;-65
2022/07/25 00:44:09;;;;;;;0.00;0.00;;;;;;;;;;5062192;28;20261;-65
2022/07/25 00:46:37;;;;;;;0.03;0.03;;;;;;;;;;5051832;28;20303;-65
2022/07/25 00:49:04;;;;;;;0.00;0.00;;;;;;;;;;5062930;28;20278;-64
2022/07/25 00:51:30;;;;;;;0.00;0.00;;;;;;;;;;5051884;28;20303;-66
2022/07/25 00:53:57;;;;;;;0.00;0.00;;;;;;;;;;5062803;28;20231;-66
2022/07/25 00:56:24;;;;;;;0.00;0.00;;;;;;;;;;5052033;28;20532;-63
2022/07/25 00:58:52;;;;;;;0.00;0.00;;;;;;;;;;5062390;28;20275;-65
2022/07/25 01:01:18;;;;;;;0.00;0.00;;;;;;;;;;5051409;28;20259;-65
2022/07/25 01:03:44;;;;;;;0.00;0.00;;;;;;;;;;5062876;28;20274;-65
2022/07/25 01:06:11;;;;;;;0.08;0.08;;;;;;;;;;5052166;28;20541;-64
2022/07/25 01:08:37;;;;;;;0.00;0.00;;;;;;;;;;5062361;28;20231;-65
2022/07/25 01:11:04;;;;;;;0.00;0.00;;;;;;;;;;5051962;28;20250;-64
2022/07/25 01:13:31;;;;;;;0.00;0.00;;;;;;;;;;5062460;28;20235;-66
2022/07/25 01:15:59;;;;;;;0.00;0.00;;;;;;;;;;5051665;28;20240;-66
2022/07/25 01:18:25;;;;;;;0.10;0.10;;;;;;;;;;5062083;28;20228;-63
2022/07/25 01:20:53;;;;;;;0.03;0.03;;;;;;;;;;5052107;28;20243;-65
2022/07/25 01:23:19;;;;;;;0.10;0.10;;;;;;;;;;5061892;28;20243;-66
2022/07/25 01:25:46;;;;;;;0.10;0.10;;;;;;;;;;5051627;28;20311;-64
2022/07/25 01:28:12;;;;;;;0.00;0.00;;;;;;;;;;5061693;28;20239;-64
2022/07/25 01:30:39;;;;;;;0.00;0.00;;;;;;;;;;5051928;28;20516;-65
2022/07/25 01:33:05;;;;;;;0.10;0.10;;;;;;;;;;5061750;28;20235;-65
2022/07/25 01:35:31;;;;;;;0.00;0.00;;;;;;;;;;5051625;28;20302;-65
2022/07/25 01:37:59;;;;;;;0.00;0.00;;;;;;;;;;5061503;28;20212;-66
2022/07/25 01:40:25;;;;;;;0.00;0.00;;;;;;;;;;5051946;28;20241;-64
2022/07/25 01:42:52;;;;;;;0.00;0.00;;;;;;;;;;5061530;28;20192;-64
2022/07/25 01:45:18;;;;;;;0.03;0.03;;;;;;;;;;5051548;28;20356;-64
2022/07/25 01:47:44;;;;;;;0.00;0.00;;;;;;;;;;5061206;28;20267;-64
2022/07/25 01:50:11;;;;;;;0.00;0.00;;;;;;;;;;5052181;28;20430;-64
2022/07/25 01:52:38;;;;;;;0.00;0.00;;;;;;;;;;5060884;28;20211;-64
2022/07/25 01:55:07;;;;;;;0.00;0.00;;;;;;;;;;5065682;28;20285;-70
2022/07/25 01:57:33;;;;;;;0.00;0.00;;;;;;;;;;5067395;28;20284;-64
2022/07/25 01:59:59;;;;;;;0.00;0.00;;;;;;;;;;5068855;28;20207;-66
2022/07/25 02:02:26;;;;;;;0.10;0.10;;;;;;;;;;5057312;28;20504;-65
2022/07/25 02:04:52;;;;;;;0.10;0.10;;;;;;;;;;5068423;28;20437;-65
2022/07/25 02:07:18;;;;;;;0.00;0.00;;;;;;;;;;5057167;28;20289;-65
2022/07/25 02:09:45;;;;;;;0.00;0.00;;;;;;;;;;5068911;28;20262;-65
2022/07/25 02:12:12;;;;;;;0.00;0.00;;;;;;;;;;5057264;28;20307;-65
2022/07/25 02:14:39;;;;;;;0.10;0.10;;;;;;;;;;5068892;28;20444;-64
2022/07/25 02:17:06;;;;;;;0.10;0.10;;;;;;;;;;5057038;28;20258;-64
2022/07/25 02:19:33;;;;;;;0.00;0.00;;;;;;;;;;5068757;28;20306;-63
2022/07/25 02:21:59;;;;;;;0.05;0.05;;;;;;;;;;5057172;28;20273;-65
2022/07/25 02:24:26;;;;;;;0.00;0.00;;;;;;;;;;5068503;28;20278;-64
2022/07/25 02:26:53;;;;;;;0.00;0.00;;;;;;;;;;5056898;28;20298;-67
2022/07/25 02:29:21;;;;;;;0.00;0.00;;;;;;;;;;5068384;28;20207;-65
2022/07/25 02:31:47;;;;;;;0.00;0.00;;;;;;;;;;5056988;28;20302;-64
2022/07/25 02:34:14;;;;;;;0.00;0.00;;;;;;;;;;5068279;28;20211;-64
2022/07/25 02:36:40;;;;;;;0.00;0.00;;;;;;;;;;5057420;28;20299;-64
2022/07/25 02:39:06;;;;;;;0.10;0.10;;;;;;;;;;5068097;28;20443;-64
2022/07/25 02:41:32;;;;;;;0.00;0.00;;;;;;;;;;5057259;28;20239;-65
2022/07/25 02:43:59;;;;;;;0.00;0.00;;;;;;;;;;5068448;28;20357;-65
2022/07/25 02:46:26;;;;;;;0.00;0.00;;;;;;;;;;5057506;28;20515;-65
2022/07/25 02:48:53;;;;;;;0.08;0.08;;;;;;;;;;5068494;28;20287;-65
2022/07/25 02:51:19;;;;;;;0.10;0.10;;;;;;;;;;5057289;28;20302;-64
2022/07/25 02:53:45;;;;;;;0.00;0.00;;;;;;;;;;5068050;28;20444;-65
2022/07/25 02:56:12;;;;;;;0.00;0.00;;;;;;;;;;5057387;28;20248;-66
2022/07/25 02:58:38;;;;;;;0.00;0.00;;;;;;;;;;5067967;28;20204;-65
2022/07/25 03:01:05;;;;;;;0.00;0.00;;;;;;;;;;5057415;28;20305;-65
2022/07/25 03:03:32;;;;;;;0.10;0.10;;;;;;;;;;5067829;28;20213;-64
2022/07/25 03:05:58;;;;;;;0.10;0.10;;;;;;;;;;5055330;28;20364;-64
2022/07/25 03:08:25;;;;;;;0.00;0.00;;;;;;;;;;5064482;28;20416;-65
2022/07/25 03:10:53;;;;;;;0.00;0.00;;;;;;;;;;5054266;28;20266;-65
2022/07/25 03:13:19;;;;;;;0.00;0.00;;;;;;;;;;5064623;28;20206;-64
2022/07/25 03:15:45;;;;;;;0.00;0.00;;;;;;;;;;5054148;28;20250;-65
2022/07/25 03:18:12;;;;;;;0.00;0.00;;;;;;;;;;5063982;28;20227;-65
2022/07/25 03:20:39;;;;;;;0.10;0.10;;;;;;;;;;5054079;28;20615;-65
2022/07/25 03:23:06;;;;;;;0.10;0.10;;;;;;;;;;5063856;28;20196;-65
2022/07/25 03:25:32;;;;;;;0.10;0.10;;;;;;;;;;5054392;28;20243;-65
2022/07/25 03:27:58;;;;;;;0.10;0.10;;;;;;;;;;5064052;28;20263;-65
2022/07/25 03:30:27;;;;;;;0.10;0.10;;;;;;;;;;5054251;28;20261;-65
2022/07/25 03:32:54;;;;;;;0.00;0.00;;;;;;;;;;5063823;28;20350;-64
2022/07/25 03:35:20;;;;;;;0.00;0.00;;;;;;;;;;5054372;28;20258;-64
2022/07/25 03:37:48;;;;;;;0.00;0.00;;;;;;;;;;5063948;28;20216;-66
2022/07/25 03:40:14;;;;;;;0.00;0.00;;;;;;;;;;5053957;28;20265;-65
2022/07/25 03:42:41;;;;;;;0.00;0.00;;;;;;;;;;5063600;28;20199;-65
2022/07/25 03:45:08;;;;;;;0.10;0.10;;;;;;;;;;5054321;28;20205;-65
2022/07/25 03:47:34;;;;;;;0.00;0.00;;;;;;;;;;5063344;28;20204;-66
2022/07/25 03:50:00;;;;;;;0.08;0.08;;;;;;;;;;5064616;28;20218;-64
2022/07/25 03:52:27;;;;;;;0.00;0.00;;;;;;;;;;5052951;28;20245;-66
2022/07/25 03:54:54;;;;;;;0.00;0.00;;;;;;;;;;5064614;28;20264;-64
2022/07/25 03:57:21;;;;;;;0.10;0.10;;;;;;;;;;5052461;28;20243;-65
2022/07/25 03:59:47;;;;;;;0.00;0.00;;;;;;;;;;5064290;28;20206;-66
2022/07/25 04:02:13;;;;;;;0.00;0.00;;;;;;;;;;5052119;28;20232;-65
2022/07/25 04:04:39;;;;;;;0.08;0.08;;;;;;;;;;5064082;28;20204;-65
2022/07/25 04:07:06;;;;;;;0.00;0.00;;;;;;;;;;5052483;28;20246;-66
2022/07/25 04:09:32;;;;;;;0.00;0.00;;;;;;;;;;5064165;28;20237;-65
2022/07/25 04:12:00;;;;;;;0.10;0.10;;;;;;;;;;5052569;28;20301;-64
2022/07/25 04:14:26;;;;;;;0.00;0.00;;;;;;;;;;5063938;28;20208;-64
2022/07/25 04:16:53;;;;;;;0.00;0.00;;;;;;;;;;5052056;28;20244;-65
2022/07/25 04:19:19;;;;;;;0.10;0.10;;;;;;;;;;5063526;28;20232;-64
2022/07/25 04:21:45;;;;;;;0.00;0.00;;;;;;;;;;5052408;28;20302;-64
2022/07/25 04:24:12;;;;;;;0.00;0.00;;;;;;;;;;5063563;28;20347;-64
2022/07/25 04:26:38;;;;;;;0.00;0.00;;;;;;;;;;5052244;28;20594;-64
2022/07/25 04:29:06;;;;;;;0.10;0.10;;;;;;;;;;5063700;28;20224;-65
2022/07/25 04:31:33;;;;;;;0.00;0.00;;;;;;;;;;5052710;28;20428;-64
2022/07/25 04:33:59;;;;;;;0.10;0.10;;;;;;;;;;5063570;28;20457;-64
2022/07/25 04:36:26;;;;;;;0.00;0.00;;;;;;;;;;5052392;28;20334;-63
2022/07/25 04:38:52;;;;;;;0.00;0.00;;;;;;;;;;5063069;28;20449;-64
2022/07/25 04:41:19;;;;;;;0.00;0.00;;;;;;;;;;5052249;28;20241;-64
2022/07/25 04:43:45;;;;;;;0.03;0.03;;;;;;;;;;5062996;28;20215;-64
2022/07/25 04:46:17;;;;;;;0.10;0.10;;;;;;;;;;5052556;28;20243;-64
2022/07/25 04:48:43;;;;;;;0.00;0.00;;;;;;;;;;5062928;28;20282;-64
2022/07/25 04:51:10;;;;;;;0.00;0.00;;;;;;;;;;5052361;28;20484;-64
2022/07/25 04:53:36;;;;;;;0.00;0.00;;;;;;;;;;5062914;28;20260;-65
2022/07/25 04:56:02;;;;;;;0.10;0.10;;;;;;;;;;5052483;28;20306;-64
2022/07/25 04:58:29;;;;;;;0.10;0.10;;;;;;;;;;5062718;28;20221;-64
2022/07/25 05:00:55;;;;;;;0.10;0.10;;;;;;;;;;5052454;28;20305;-64
2022/07/25 05:03:22;;;;;;;0.10;0.10;;;;;;;;;;5062146;28;20234;-66
2022/07/25 05:05:49;;;;;;;0.00;0.00;;;;;;;;;;5052354;28;20254;-65
2022/07/25 05:08:15;;;;;;;0.03;0.03;;;;;;;;;;5062257;28;20348;-65
2022/07/25 05:10:41;;;;;;;0.10;0.10;;;;;;;;;;5052478;28;20310;-65
2022/07/25 05:13:08;;;;;;;0.00;0.00;;;;;;;;;;5062292;28;20368;-64
2022/07/25 05:15:34;;;;;;;0.10;0.10;;;;;;;;;;5052021;28;20301;-64
2022/07/25 05:18:01;;;;;;;0.10;0.10;;;;;;;;;;5061889;28;20296;-65
2022/07/25 05:20:29;;;;;;;0.10;0.10;;;;;;;;;;5052079;28;20241;-64
2022/07/25 05:22:55;;;;;;;0.00;0.00;;;;;;;;;;5061444;28;20226;-64
2022/07/25 05:25:22;;;;;;;0.00;0.00;;;;;;;;;;5052395;28;20282;-65
2022/07/25 05:27:48;;;;;;;0.10;0.10;;;;;;;;;;5061808;28;20273;-64
2022/07/25 05:30:14;;;;;;;0.00;0.00;;;;;;;;;;5051557;28;20278;-64
2022/07/25 05:32:41;;;;;;;0.00;0.00;;;;;;;;;;5061473;28;20310;-64
2022/07/25 05:35:09;;;;;;;0.05;0.05;;;;;;;;;;5052563;28;20272;-65
2022/07/25 05:37:37;;;;;;;0.10;0.10;;;;;;;;;;5061400;28;20296;-63
2022/07/25 05:40:04;;;;;;;0.10;0.10;;;;;;;;;;5062809;28;20278;-64
2022/07/25 05:42:30;;;;;;;0.00;0.00;;;;;;;;;;5034268;28;20249;-65
2022/07/25 05:44:56;;;;;;;0.10;0.10;;;;;;;;;;5062132;28;20206;-64
2022/07/25 05:47:23;;;;;;;0.00;0.00;;;;;;;;;;5050937;28;20435;-63
2022/07/25 05:49:49;;;;;;;0.05;0.05;;;;;;;;;;5062585;28;20436;-65
2022/07/25 05:52:15;;;;;;;0.00;0.00;;;;;;;;;;5050691;28;20442;-64
2022/07/25 05:54:43;;;;;;;0.10;0.10;;;;;;;;;;5062428;28;20237;-64
2022/07/25 05:57:10;;;;;;;0.00;0.00;;;;;;;;;;5051066;28;20335;-66
2022/07/25 05:59:36;;;;;;;0.10;0.10;;;;;;;;;;5062486;28;20394;-65
2022/07/25 06:02:03;;;;;;;0.05;0.05;;;;;;;;;;5050656;28;20292;-66
2022/07/25 06:04:29;;;;;;;0.00;0.00;;;;;;;;;;5062222;28;20286;-64
2022/07/25 06:06:55;;;;;;;0.00;0.00;;;;;;;;;;5050821;28;20259;-65
2022/07/25 06:09:22;;;;;;;0.10;0.10;;;;;;;;;;5062432;28;20391;-65
2022/07/25 06:11:50;;;;;;;0.00;0.00;;;;;;;;;;5050963;28;20306;-65
2022/07/25 06:14:17;;;;;;;0.00;0.00;;;;;;;;;;5062183;28;20209;-65
2022/07/25 06:16:43;;;;;;;0.05;0.05;;;;;;;;;;5050655;28;20286;-65
2022/07/25 06:19:10;;;;;;;0.00;0.00;;;;;;;;;;5061703;28;20258;-63
2022/07/25 06:21:36;;;;;;;0.00;0.00;;;;;;;;;;5050803;28;20227;-65
2022/07/25 06:24:03;;;;;;;0.00;0.00;;;;;;;;;;5062060;28;20234;-68
2022/07/25 06:26:29;;;;;;;0.00;0.00;;;;;;;;;;5050881;28;20248;-64
2022/07/25 06:28:57;;;;;;;0.00;0.00;;;;;;;;;;5061876;28;20298;-65
2022/07/25 06:31:23;;;;;;;0.00;0.00;;;;;;;;;;5050867;28;20303;-65
2022/07/25 06:33:49;;;;;;;0.00;0.00;;;;;;;;;;5061708;28;20283;-64
2022/07/25 06:36:16;;;;;;;0.10;0.10;;;;;;;;;;5051032;28;20243;-66
2022/07/25 06:38:42;;;;;;;0.00;0.00;;;;;;;;;;5061279;28;20283;-66
2022/07/25 06:41:13;;;;;;;0.00;0.00;;;;;;;;;;5051161;28;20263;-66
2022/07/25 06:43:39;;;;;;;0.05;0.05;;;;;;;;;;5065230;28;20460;-64
2022/07/25 06:46:07;;;;;;;0.00;0.00;;;;;;;;;;5054549;28;20247;-64
2022/07/25 06:48:34;;;;;;;0.10;0.10;;;;;;;;;;5064965;28;20204;-65
2022/07/25 06:51:00;;;;;;;0.00;0.00;;;;;;;;;;5054452;28;20448;-64
2022/07/25 06:53:27;;;;;;;0.10;0.10;;;;;;;;;;5064514;28;20210;-65
2022/07/25 06:55:53;;;;;;;0.00;0.00;;;;;;;;;;5054821;28;20389;-65
2022/07/25 06:58:19;;;;;;;0.03;0.03;;;;;;;;;;5064866;28;20227;-65
2022/07/25 07:00:46;;;;;;;0.00;0.00;;;;;;;;;;5054752;28;20310;-65
2022/07/25 07:03:13;;;;;;;0.00;0.00;;;;;;;;;;5064497;28;20303;-65
2022/07/25 07:05:40;;;;;;;0.10;0.10;;;;;;;;;;5054730;28;20243;-65
2022/07/25 07:08:07;;;;;;;0.00;0.00;;;;;;;;;;5064591;28;20195;-65
2022/07/25 07:10:33;;;;;;;0.05;0.05;;;;;;;;;;5054647;28;20240;-66
2022/07/25 07:13:04;;;;;;;0.10;0.10;;;;;;;;;;5064332;28;20460;-64
2022/07/25 07:15:31;;;;;;;0.00;0.00;;;;;;;;;;5054487;28;20261;-64
2022/07/25 07:17:57;;;;;;;0.00;0.00;;;;;;;;;;5064018;28;20611;-65
2022/07/25 07:20:25;;;;;;;0.00;0.00;;;;;;;;;;5054382;28;20211;-65
2022/07/25 07:22:51;;;;;;;0.00;0.00;;;;;;;;;;5063537;28;20228;-65
2022/07/25 07:25:19;;;;;;;0.10;0.10;;;;;;;;;;5054695;28;20283;-65
2022/07/25 07:27:49;;;;;;;0.00;0.00;;;;;;;;;;5063656;28;20200;-79
2022/07/25 07:30:15;;;;;;;0.00;0.00;;;;;;;;;;5054367;28;20267;-78
2022/07/25 07:32:42;;;;;;;0.00;0.00;;;;;;;;;;5063565;28;20208;-77
2022/07/25 07:35:10;;;;;;;0.00;0.00;;;;;;;;;;5054407;28;20480;-77
2022/07/25 07:37:38;;;;;;;0.00;0.00;;;;;;;;;;5063636;28;20258;-76
2022/07/25 07:40:06;;;;;;;0.00;0.00;;;;;;;;;;5062900;28;20246;-77
2022/07/25 07:42:37;;;;;;;0.00;0.00;;;;;;;;;;5063517;28;20263;-78
2022/07/25 07:45:09;;;;;;;0.00;0.00;;;;;;;;;;5064607;28;20227;-78
2022/07/25 07:47:36;;;;;;;0.00;0.00;;;;;;;;;;5036637;28;20271;-78
2022/07/25 07:50:03;;;;;;;0.00;0.00;;;;;;;;;;5064624;28;20205;-76
2022/07/25 07:52:32;;;;;;;0.00;0.00;;;;;;;;;;5052306;28;20554;-78
2022/07/25 07:57:44;;;;;;;0.00;0.00;;;;;;;;;;5063750;28;20191;-76
2022/07/25 08:00:11;;;;;;;0.00;0.00;;;;;;;;;;5054091;28;20279;-77
2022/07/25 08:02:42;;;;;;;0.00;0.00;;;;;;;;;;5063073;28;20212;-77
2022/07/25 08:05:08;;;;;;;0.00;0.00;;;;;;;;;;5053518;28;20203;-76
2022/07/25 08:07:35;;;;;;;0.00;0.00;;;;;;;;;;5063655;28;20220;-77
2022/07/25 08:10:03;;;;;;;0.00;0.00;;;;;;;;;;5064157;28;20207;-77
2022/07/25 08:12:29;;;;;;;0.00;0.00;;;;;;;;;;5052980;28;20401;-76
2022/07/25 08:14:56;;;;;;;0.00;0.00;;;;;;;;;;5063830;28;20276;-77
2022/07/25 08:17:22;;;;;;;0.00;0.00;;;;;;;;;;5052649;28;20439;-79
2022/07/25 08:19:50;;;;;;;0.10;0.10;;;;;;;;;;5063695;28;20561;-76
2022/07/25 08:22:16;;;;;;;0.00;0.00;;;;;;;;;;5052464;28;20297;-76
2022/07/25 08:24:43;;;;;;;0.00;0.00;;;;;;;;;;5063929;28;20220;-76
2022/07/25 08:27:11;;;;;;;0.00;0.00;;;;;;;;;;5052616;28;20240;-77
2022/07/25 08:29:37;;;;;;;0.00;0.00;;;;;;;;;;5063865;28;20390;-76
2022/07/25 08:32:04;;;;;;;0.00;0.00;;;;;;;;;;5052422;28;20266;-76
2022/07/25 08:34:31;;;;;;;0.00;0.00;;;;;;;;;;5063554;28;20196;-77
2022/07/25 08:36:58;;;;;;;0.00;0.00;;;;;;;;;;5052564;28;20274;-78
2022/07/25 08:39:24;;;;;;;0.00;0.00;;;;;;;;;;5063362;28;20458;-78
2022/07/25 08:41:51;;;;;;;0.10;0.10;;;;;;;;;;5052007;28;20338;-78
2022/07/25 08:44:20;;;;;;;0.00;0.00;;;;;;;;;;5063135;28;20283;-77
2022/07/25 08:46:46;;;;;;;0.00;0.00;;;;;;;;;;5051982;28;20323;-77
2022/07/25 08:49:13;;;;;;;0.00;0.00;;;;;;;;;;5063167;28;20208;-77
2022/07/25 08:51:40;;;;;;;0.00;0.00;;;;;;;;;;5052377;28;20255;-76
2022/07/25 08:54:07;;;;;;;0.00;0.00;;;;;;;;;;5062767;28;20271;-77
2022/07/25 08:56:34;;;;;;;0.00;0.00;;;;;;;;;;5052151;28;20433;-77
2022/07/25 08:59:00;;;;;;;0.00;0.00;;;;;;;;;;5062737;28;20208;-77
2022/07/25 09:01:29;;;;;;;0.00;0.00;;;;;;;;;;5051957;28;20298;-76
2022/07/25 09:03:55;;;;;;;0.00;0.00;;;;;;;;;;5061663;28;20440;-77
2022/07/25 09:06:22;;;;;;;0.00;0.00;;;;;;;;;;5051892;28;20256;-76
2022/07/25 09:08:55;;;;;;;0.00;0.00;;;;;;;;;;5062508;28;20242;-76
2022/07/25 09:11:28;;;;;;;0.00;0.00;;;;;;;;;;5051775;28;20524;-77
2022/07/25 09:14:02;;;;;;;0.00;0.00;;;;;;;;;;5062487;28;20285;-76
2022/07/25 09:16:30;;;;;;;0.00;0.00;;;;;;;;;;5051401;28;20278;-76
2022/07/25 09:19:05;;;;;;;0.08;0.08;;;;;;;;;;5062348;28;20288;-76
2022/07/25 09:21:32;;;;;;;0.00;0.00;;;;;;;;;;5051758;28;20470;-77
2022/07/25 09:24:07;;;;;;;0.20;0.20;;;;;;;;;;5062394;28;20416;-77
2022/07/25 09:26:42;;;;;;;0.00;0.00;;;;;;;;;;5051387;28;20239;-77
2022/07/25 09:29:15;;;;;;;0.00;0.00;;;;;;;;;;5062356;28;20259;-76
2022/07/25 09:31:44;;;;;;;0.00;0.00;;;;;;;;;;5051544;28;20252;-77
2022/07/25 09:34:11;;;;;;;0.10;0.10;;;;;;;;;;5062340;28;20205;-77
2022/07/25 09:36:42;;;;;;;0.00;0.00;;;;;;;;;;5051451;28;20246;-76
2022/07/25 09:39:08;;;;;;;0.00;0.00;;;;;;;;;;5062292;28;20273;-76
2022/07/25 09:41:38;;;;;;;0.00;0.00;;;;;;;;;;5051723;28;20299;-77
2022/07/25 09:44:15;;;;;;;0.00;0.00;;;;;;;;;;5062649;28;20242;-77
2022/07/25 09:46:43;;;;;;;0.00;0.00;;;;;;;;;;5051273;28;20243;-77
2022/07/25 09:49:13;;;;;;;0.00;0.00;;;;;;;;;;5062425;28;20204;-77
2022/07/25 09:51:39;;;;;;;0.00;0.00;;;;;;;;;;5051310;28;20270;-77
2022/07/25 09:54:06;;;;;;;1.65;1.00;;;;;;;;;;5061831;28;20242;-78
2022/07/25 09:56:34;;;;;;;0.00;0.00;;;;;;;;;;5051093;28;20263;-78
2022/07/25 09:59:01;;;;;;;0.00;0.00;;;;;;;;;;5061751;28;20196;-77
2022/07/25 10:01:32;;;;;;;0.00;0.00;;;;;;;;;;5051116;28;20293;-78
2022/07/25 10:04:07;;;;;;;0.00;0.00;;;;;;;;;;5061951;28;20215;-78
2022/07/25 10:06:38;;;;;;;0.00;0.00;;;;;;;;;;5051299;28;20251;-77
2022/07/25 10:09:09;;;;;;;0.00;0.00;;;;;;;;;;5062379;28;20199;-78
2022/07/25 10:11:36;;;;;;;0.00;0.00;;;;;;;;;;5051234;28;20307;-77
2022/07/25 10:14:10;;;;;;;0.00;0.00;;;;;;;;;;5062017;28;20276;-78
2022/07/25 10:16:45;;;;;;;0.00;0.00;;;;;;;;;;5054023;28;20240;-77
2022/07/25 10:19:13;;;;;;;0.47;0.47;;;;;;;;;;5065984;28;20350;-78
2022/07/25 10:21:39;;;;;;;0.00;0.00;;;;;;;;;;5055004;28;20298;-78
2022/07/25 10:24:07;;;;;;;0.00;0.00;;;;;;;;;;5065952;28;20291;-78
2022/07/25 10:26:34;;;;;;;0.00;0.00;;;;;;;;;;5055016;28;20323;-78
2022/07/25 10:29:01;;;;;;;0.00;0.00;;;;;;;;;;5065735;28;20204;-78
2022/07/25 10:31:34;;;;;;;0.00;0.00;;;;;;;;;;5037610;28;20312;-78
2022/07/25 10:34:02;;;;;;;0.13;0.13;;;;;;;;;;5065681;28;20222;-79
2022/07/25 10:36:42;;;;;;;0.00;0.00;;;;;;;;;;5054834;28;20426;-77
2022/07/25 10:39:09;;;;;;;0.00;0.00;;;;;;;;;;5065639;28;20211;-78
2022/07/25 10:41:38;;;;;;;0.00;0.00;;;;;;;;;;5054661;28;20310;-78
2022/07/25 10:44:10;;;;;;;2.25;0.73;;;;;;;;;;5065718;28;20482;-77
2022/07/25 10:46:37;;;;;;;0.00;0.00;;;;;;;;;;5054733;28;20243;-78
2022/07/25 10:49:06;;;;;;;0.17;0.17;;;;;;;;;;5065017;28;20254;-78
2022/07/25 10:51:34;;;;;;;0.00;0.00;;;;;;;;;;5054304;28;20252;-78
2022/07/25 10:54:01;;;;;;;0.00;0.00;;;;;;;;;;5064899;28;20200;-78
2022/07/25 10:56:28;;;;;;;1.10;1.10;;;;;;;;;;5054453;28;20420;-78
2022/07/25 10:58:55;;;;;;;0.00;0.00;;;;;;;;;;5064985;28;20211;-78
2022/07/25 11:01:22;;;;;;;0.00;0.00;;;;;;;;;;5054391;28;20307;-78
2022/07/25 11:03:49;;;;;;;0.00;0.00;;;;;;;;;;5064539;28;20224;-78
2022/07/25 11:06:16;;;;;;;0.00;0.00;;;;;;;;;;5054070;28;20251;-77
2022/07/25 11:08:44;;;;;;;0.00;0.00;;;;;;;;;;5064942;28;20231;-77
2022/07/25 11:11:11;;;;;;;0.00;0.00;;;;;;;;;;5054301;28;20269;-78
2022/07/25 11:13:38;;;;;;;0.00;0.00;;;;;;;;;;5064574;28;20287;-78
2022/07/25 11:16:05;;;;;;;0.00;0.00;;;;;;;;;;5054234;28;20236;-78
2022/07/25 11:18:33;;;;;;;0.00;0.00;;;;;;;;;;5064499;28;20473;-77
2022/07/25 11:21:00;;;;;;;0.00;0.00;;;;;;;;;;5054041;28;20244;-77
2022/07/25 11:23:26;;;;;;;0.00;0.00;;;;;;;;;;5064012;28;20220;-75
2022/07/25 11:26:03;;;;;;;0.00;0.00;;;;;;;;;;5054432;28;20479;-76
2022/07/25 11:28:41;;;;;;;0.00;0.00;;;;;;;;;;5046230;28;20204;-80
2022/07/25 11:31:24;;;;;;;0.00;0.00;;;;;;;;;;5053269;28;20266;-81
2022/07/25 11:33:51;;;;;;;0.00;0.00;;;;;;;;;;5064195;28;20202;-75
2022/07/25 11:36:22;;;;;;;0.00;0.00;;;;;;;;;;5052986;28;20271;-76
2022/07/25 11:38:50;;;;;;;0.00;0.00;;;;;;;;;;5064091;28;20458;-79
2022/07/25 11:41:29;;;;;;;0.20;0.20;;;;;;;;;;5053511;28;20245;-78
2022/07/25 11:43:56;;;;;;;0.00;0.00;;;;;;;;;;5064410;28;20228;-76
2022/07/25 11:46:22;;;;;;;0.00;0.00;;;;;;;;;;5053658;28;20307;-77
2022/07/25 11:48:48;;;;;;;0.00;0.00;;;;;;;;;;5064282;28;20267;-77
2022/07/25 11:51:16;;;;;;;0.00;0.00;;;;;;;;;;5053532;28;20494;-78
2022/07/25 11:53:44;;;;;;;0.00;0.00;;;;;;;;;;5063773;28;20204;-79
2022/07/25 11:56:14;;;;;;;0.00;0.00;;;;;;;;;;5053114;28;20251;-77
2022/07/25 11:58:42;;;;;;;0.10;0.10;;;;;;;;;;5063863;28;20242;-77
2022/07/25 12:01:13;;;;;;;0.00;0.00;;;;;;;;;;5053376;28;20251;-78
2022/07/25 12:03:45;;;;;;;0.00;0.00;;;;;;;;;;5063702;28;20228;-77
2022/07/25 12:06:12;;;;;;;0.00;0.00;;;;;;;;;;5053350;28;20236;-78
2022/07/25 12:08:39;;;;;;;0.00;0.00;;;;;;;;;;5063413;28;20242;-78
2022/07/25 12:11:16;;;;;;;0.00;0.00;;;;;;;;;;5053086;28;20244;-77
2022/07/25 12:13:44;;;;;;;0.00;0.00;;;;;;;;;;5063701;28;20210;-75
2022/07/25 12:16:10;;;;;;;0.00;0.00;;;;;;;;;;5052917;28;20410;-78
2022/07/25 12:18:37;;;;;;;0.00;0.00;;;;;;;;;;5063626;28;20462;-77
2022/07/25 12:21:04;;;;;;;0.00;0.00;;;;;;;;;;5044848;28;20240;-77
2022/07/25 12:23:33;;;;;;;0.00;0.00;;;;;;;;;;5041634;28;20229;-76
2022/07/25 12:26:00;;;;;;;0.00;0.00;;;;;;;;;;5031589;28;20244;-77
2022/07/25 12:28:40;;;;;;;0.00;0.00;;;;;;;;;;5041487;28;20212;-76
2022/07/25 12:31:08;;;;;;;0.00;0.00;;;;;;;;;;5031583;28;20303;-76
2022/07/25 12:33:35;;;;;;;0.00;0.00;;;;;;;;;;5041446;28;20199;-77
2022/07/25 12:36:02;;;;;;;0.20;0.20;;;;;;;;;;5031041;28;20314;-77
2022/07/25 12:38:28;;;;;;;0.00;0.00;;;;;;;;;;5040782;28;20275;-78
2022/07/25 12:40:57;;;;;;;0.00;0.00;;;;;;;;;;5031160;28;20244;-77
2022/07/25 12:43:23;;;;;;;0.00;0.00;;;;;;;;;;5040840;28;20320;-77
2022/07/25 12:48:32;;;;;;;0.00;0.00;;;;;;;;;;5052777;28;20212;-76
2022/07/25 12:51:00;;;;;;;0.00;0.00;;;;;;;;;;5052405;28;20313;-77
2022/07/25 12:53:27;;;;;;;0.10;0.10;;;;;;;;;;5062338;28;20196;-75
2022/07/25 12:55:53;;;;;;;0.00;0.00;;;;;;;;;;5052615;28;20240;-77
2022/07/25 12:58:20;;;;;;;0.00;0.00;;;;;;;;;;5062605;28;20231;-77
2022/07/25 13:00:48;;;;;;;0.00;0.00;;;;;;;;;;5052579;28;20271;-78
2022/07/25 13:03:14;;;;;;;0.00;0.00;;;;;;;;;;5062277;28;20595;-78
2022/07/25 13:05:45;;;;;;;0.00;0.00;;;;;;;;;;5052718;28;20239;-78
2022/07/25 13:08:11;;;;;;;0.00;0.00;;;;;;;;;;5061883;28;20204;-77
2022/07/25 13:10:38;;;;;;;0.00;0.00;;;;;;;;;;5052588;28;20240;-76
2022/07/25 13:13:04;;;;;;;0.00;0.00;;;;;;;;;;5062286;28;20283;-76
2022/07/25 13:15:31;;;;;;;1.35;0.85;;;;;;;;;;5052767;28;20236;-77
2022/07/25 13:17:57;;;;;;;0.00;0.00;;;;;;;;;;5061364;28;20262;-76
2022/07/25 13:20:24;;;;;;;0.00;0.00;;;;;;;;;;5052460;28;20391;-76
2022/07/25 13:22:52;;;;;;;0.00;0.00;;;;;;;;;;5061642;28;20196;-78
2022/07/25 13:25:19;;;;;;;0.65;0.65;;;;;;;;;;5051434;28;20238;-77
2022/07/25 13:27:53;;;;;;;0.00;0.00;;;;;;;;;;5061757;28;20252;-76
2022/07/25 13:30:20;;;;;;;0.00;0.00;;;;;;;;;;5052298;28;20241;-77
2022/07/25 13:32:47;;;;;;;0.00;0.00;;;;;;;;;;5061685;28;20203;-77
2022/07/25 13:35:14;;;;;;;0.00;0.00;;;;;;;;;;5051829;28;20208;-79
2022/07/25 13:37:44;;;;;;;0.00;0.00;;;;;;;;;;5061495;28;20207;-78
2022/07/25 13:40:12;;;;;;;0.00;0.00;;;;;;;;;;5052435;28;20299;-78
2022/07/25 13:42:39;;;;;;;0.00;0.00;;;;;;;;;;5061667;28;20192;-78
2022/07/25 13:45:09;;;;;;;0.00;0.00;;;;;;;;;;5062464;28;20224;-76
2022/07/25 13:47:35;;;;;;;0.00;0.00;;;;;;;;;;5034402;28;20372;-76
2022/07/25 13:50:02;;;;;;;0.00;0.00;;;;;;;;;;5062155;28;20223;-78
2022/07/25 13:52:29;;;;;;;0.00;0.00;;;;;;;;;;5051098;28;20313;-79
2022/07/25 13:54:55;;;;;;;0.00;0.00;;;;;;;;;;5062975;28;20412;-77
2022/07/25 13:57:26;;;;;;;0.00;0.00;;;;;;;;;;5051239;28;20361;-77
2022/07/25 13:59:54;;;;;;;0.00;0.00;;;;;;;;;;5062309;28;20221;-77
2022/07/25 14:02:22;;;;;;;0.00;0.00;;;;;;;;;;5049799;28;20280;-77
2022/07/25 14:04:49;;;;;;;0.00;0.00;;;;;;;;;;5062243;28;20223;-77
2022/07/25 14:07:15;;;;;;;1.65;1.65;;;;;;;;;;5050881;28;20393;-75
2022/07/25 14:09:42;;;;;;;0.00;0.00;;;;;;;;;;5061859;28;20441;-76
2022/07/25 14:12:09;;;;;;;0.00;0.00;;;;;;;;;;5033681;28;20529;-77
2022/07/25 14:14:37;;;;;;;0.00;0.00;;;;;;;;;;5062243;28;20263;-78
2022/07/25 14:17:03;;;;;;;0.00;0.00;;;;;;;;;;5050552;28;20282;-78
2022/07/25 14:19:31;;;;;;;0.00;0.00;;;;;;;;;;5062076;28;20242;-78
2022/07/25 14:21:58;;;;;;;0.00;0.00;;;;;;;;;;5050652;28;20397;-77
2022/07/25 14:24:24;;;;;;;0.00;0.00;;;;;;;;;;5062079;28;20246;-77
2022/07/25 14:26:52;;;;;;;0.00;0.00;;;;;;;;;;5050481;28;20255;-77
2022/07/25 14:29:19;;;;;;;0.00;0.00;;;;;;;;;;5061966;28;20204;-76
2022/07/25 14:31:49;;;;;;;0.00;0.00;;;;;;;;;;5050786;28;20259;-77
2022/07/25 14:34:19;;;;;;;0.00;0.00;;;;;;;;;;5061680;28;20367;-77
2022/07/25 14:36:46;;;;;;;0.00;0.00;;;;;;;;;;5049408;28;20266;-77
2022/07/25 14:39:13;;;;;;;0.00;0.00;;;;;;;;;;5061616;28;20223;-76
2022/07/25 14:41:40;;;;;;;0.00;0.00;;;;;;;;;;5050561;28;20488;-77
2022/07/25 14:44:17;;;;;;;0.00;0.00;;;;;;;;;;5061634;28;20365;-76
2022/07/25 14:46:44;;;;;;;0.00;0.00;;;;;;;;;;5050502;28;20246;-76
2022/07/25 14:49:27;;;;;;;0.00;0.00;;;;;;;;;;5061356;28;20242;-76